Time;durP1;ratioP1;P1;durP2;ratioP2;P2;SDS_P1;SDS_P2;PMS_P1;PMS_P2;Temp;Humidity;BMP_temperature;BMP_pressure;BME280_temperature;BME280_humidity;BME280_pressure;Samples;Min_cycle;Max_cycle;Signal;HPM_P1;HPM_P2
2023/05/24 00:01:28;;;;;;;2.10;1.10;;;;;;;;;;110178;1279;22142;-80
2023/05/24 00:04:00;;;;;;;2.80;1.20;;;;;;;;;;110292;1279;21716;-80
2023/05/24 00:06:29;;;;;;;8.70;1.30;;;;;;;;;;110189;1279;22108;-78
2023/05/24 00:08:58;;;;;;;3.20;1.50;;;;;;;;;;110421;1260;22123;-81
2023/05/24 00:11:28;;;;;;;3.80;1.80;;;;;;;;;;110198;1279;22101;-82
2023/05/24 00:13:58;;;;;;;4.30;1.90;;;;;;;;;;110081;1279;22154;-82
2023/05/24 00:16:28;;;;;;;4.70;1.80;;;;;;;;;;110089;1274;22193;-82
2023/05/24 00:18:58;;;;;;;3.70;1.80;;;;;;;;;;110232;1259;22143;-81
2023/05/24 00:21:28;;;;;;;3.80;1.50;;;;;;;;;;110191;1279;22112;-81
2023/05/24 00:23:58;;;;;;;3.70;1.40;;;;;;;;;;110265;1279;22114;-79
2023/05/24 00:26:27;;;;;;;7.00;1.70;;;;;;;;;;110125;1279;22830;-80
2023/05/24 00:28:57;;;;;;;2.60;1.10;;;;;;;;;;110340;1258;22764;-81
2023/05/24 00:31:26;;;;;;;3.10;1.00;;;;;;;;;;110131;1276;22117;-79
2023/05/24 00:33:59;;;;;;;3.40;1.10;;;;;;;;;;110198;1279;22128;-87
2023/05/24 00:36:46;;;;;;;5.30;2.10;;;;;;;;;;110057;1279;22151;-82
2023/05/24 00:39:17;;;;;;;4.30;1.30;;;;;;;;;;110246;1260;22204;-82
2023/05/24 00:41:46;;;;;;;3.00;1.10;;;;;;;;;;110283;1279;22104;-80
2023/05/24 00:51:10;;;;;;;7.20;1.70;;;;;;;;;;104147;1300;545467;-87
2023/05/24 00:53:38;;;;;;;7.70;1.60;;;;;;;;;;106413;1285;22815;-81
2023/05/24 00:56:06;;;;;;;6.80;1.50;;;;;;;;;;106419;1284;25408;-85
2023/05/24 00:58:33;;;;;;;5.50;1.40;;;;;;;;;;106207;1284;25379;-81
2023/05/24 01:01:02;;;;;;;7.00;1.40;;;;;;;;;;106504;1269;22637;-84
2023/05/24 01:03:50;;;;;;;7.60;1.90;;;;;;;;;;106405;1285;22659;-86
2023/05/24 01:06:17;;;;;;;6.50;1.70;;;;;;;;;;104398;1283;22531;-88
2023/05/24 01:08:44;;;;;;;4.10;1.30;;;;;;;;;;106429;1283;22618;-82
2023/05/24 01:11:26;;;;;;;3.80;1.40;;;;;;;;;;106813;1260;22596;-83
2023/05/24 01:13:59;;;;;;;4.70;1.50;;;;;;;;;;106788;1280;24370;-86
2023/05/24 01:16:50;;;;;;;4.50;1.30;;;;;;;;;;106865;1280;25353;-79
2023/05/24 01:19:21;;;;;;;6.90;2.00;;;;;;;;;;106723;1280;25459;-85
2023/05/24 01:22:10;;;;;;;6.10;1.90;;;;;;;;;;106729;1264;24310;-88
2023/05/24 01:24:47;;;;;;;7.30;2.10;;;;;;;;;;106817;1279;24295;-89
2023/05/24 01:27:15;;;;;;;8.80;2.40;;;;;;;;;;106844;1279;22573;-88
2023/05/24 01:29:42;;;;;;;7.70;2.10;;;;;;;;;;106849;1279;25226;-80
2023/05/24 01:32:11;;;;;;;7.50;2.20;;;;;;;;;;106745;1280;22551;-85
2023/05/24 01:34:39;;;;;;;6.80;2.30;;;;;;;;;;106794;1280;22652;-82
2023/05/24 01:37:06;;;;;;;6.70;2.10;;;;;;;;;;106797;1280;22573;-85
2023/05/24 01:39:33;;;;;;;11.10;2.40;;;;;;;;;;106712;1280;22513;-87
2023/05/24 01:42:27;;;;;;;8.00;2.00;;;;;;;;;;106681;1264;22588;-86
2023/05/24 01:45:03;;;;;;;8.30;2.10;;;;;;;;;;106705;1281;22526;-86
2023/05/24 01:47:44;;;;;;;6.40;2.10;;;;;;;;;;106648;1281;24262;-86
2023/05/24 01:50:11;;;;;;;9.70;3.00;;;;;;;;;;106698;1257;22517;-88
2023/05/24 01:52:42;;;;;;;8.30;2.60;;;;;;;;;;106496;1263;22533;-88
2023/05/24 01:55:26;;;;;;;;;;;;;;;;;;;;;
2023/05/24 01:57:57;;;;;;;7.30;2.00;;;;;;;;;;106407;1281;22589;-83
2023/05/24 02:00:30;;;;;;;7.20;2.10;;;;;;;;;;106528;1281;24353;-79
2023/05/24 02:03:03;;;;;;;6.40;2.10;;;;;;;;;;106506;1264;25397;-83
2023/05/24 02:05:43;;;;;;;7.30;2.20;;;;;;;;;;106639;1281;24233;-86
2023/05/24 02:08:20;;;;;;;5.20;2.10;;;;;;;;;;106643;1281;22963;-84
2023/05/24 02:10:51;;;;;;;7.40;2.30;;;;;;;;;;106460;1281;24209;-85
2023/05/24 02:13:18;;;;;;;6.00;1.60;;;;;;;;;;106507;1264;25278;-82
2023/05/24 02:15:48;;;;;;;6.60;2.00;;;;;;;;;;106746;1281;24434;-82
2023/05/24 02:18:35;;;;;;;7.30;2.20;;;;;;;;;;106533;1281;25348;-79
2023/05/24 02:21:01;;;;;;;7.80;2.50;;;;;;;;;;106700;1281;22553;-87
2023/05/24 02:23:28;;;;;;;6.90;2.00;;;;;;;;;;107192;1257;24351;-84
2023/05/24 02:25:57;;;;;;;5.20;1.90;;;;;;;;;;107168;1273;25274;-86
2023/05/24 02:28:34;;;;;;;;;;;;;;;;;;;;;
2023/05/24 02:31:14;;;;;;;6.80;2.20;;;;;;;;;;106739;1279;22501;-77
2023/05/24 02:33:44;;;;;;;6.90;1.90;;;;;;;;;;106785;1269;25388;-85
2023/05/24 02:36:35;;;;;;;6.60;2.40;;;;;;;;;;106766;1279;24203;-84
2023/05/24 02:39:03;;;;;;;6.50;2.20;;;;;;;;;;106814;1279;24249;-85
2023/05/24 02:41:32;;;;;;;6.50;2.30;;;;;;;;;;106727;1279;22539;-86
2023/05/24 02:44:46;;;;;;;7.40;2.50;;;;;;;;;;106844;1279;25230;-84
2023/05/24 02:47:09;;;;;;;7.20;2.70;;;;;;;;;;106859;1279;24265;-82
2023/05/24 02:49:38;;;;;;;6.50;2.40;;;;;;;;;;106752;1279;25351;-81
2023/05/24 02:52:05;;;;;;;7.70;2.50;;;;;;;;;;106736;1279;25350;-78
2023/05/24 02:54:32;;;;;;;6.50;2.60;;;;;;;;;;106703;1264;24225;-83
2023/05/24 02:57:07;;;;;;;6.70;2.40;;;;;;;;;;106569;1279;24304;-85
2023/05/24 02:59:54;;;;;;;9.20;2.50;;;;;;;;;;106763;1279;24355;-82
2023/05/24 03:02:37;;;;;;;6.50;2.20;;;;;;;;;;106482;1279;22523;-80
2023/05/24 03:05:08;;;;;;;6.20;2.30;;;;;;;;;;106815;1261;22601;-88
2023/05/24 03:07:35;;;;;;;7.20;2.20;;;;;;;;;;106812;1279;24353;-81
2023/05/24 03:10:04;;;;;;;7.90;2.70;;;;;;;;;;107305;1272;23010;-81
2023/05/24 03:13:30;;;;;;;7.50;2.10;;;;;;;;;;107350;1272;25322;-86
2023/05/24 03:15:34;;;;;;;7.00;2.20;;;;;;;;;;107231;1260;22532;-84
2023/05/24 03:18:04;;;;;;;5.60;1.90;;;;;;;;;;107097;1273;23042;-81
2023/05/24 03:20:34;;;;;;;7.70;2.70;;;;;;;;;;106969;1273;22543;-86
2023/05/24 03:23:01;;;;;;;6.20;2.50;;;;;;;;;;107219;1269;24240;-79
2023/05/24 03:25:33;;;;;;;6.80;2.20;;;;;;;;;;107175;1264;22597;-83
2023/05/24 03:28:32;;;;;;;5.60;2.00;;;;;;;;;;107035;1273;22528;-83
2023/05/24 03:31:11;;;;;;;;;;;;;;;;;;;;;
2023/05/24 03:33:51;;;;;;;4.20;1.90;;;;;;;;;;106646;1257;24084;-84
2023/05/24 03:36:21;;;;;;;5.90;2.10;;;;;;;;;;106489;1279;25229;-84
2023/05/24 03:38:50;;;;;;;7.10;1.90;;;;;;;;;;106787;1279;22591;-79
2023/05/24 03:41:34;;;;;;;;;;;;;;;;;;;;;
2023/05/24 03:44:07;;;;;;;6.00;2.30;;;;;;;;;;106712;1257;22534;-83
2023/05/24 03:46:56;;;;;;;6.30;2.20;;;;;;;;;;106679;1280;23867;-80
2023/05/24 03:49:26;;;;;;;6.40;2.50;;;;;;;;;;106779;1280;24681;-82
2023/05/24 03:54:55;;;;;;;;;;;;;;;;;;;;;
2023/05/24 03:58:11;;;;;;;9.10;3.50;;;;;;;;;;106448;1283;22529;-83
2023/05/24 04:00:38;;;;;;;9.40;3.70;;;;;;;;;;106474;1282;25325;-82
2023/05/24 04:03:32;;;;;;;10.10;4.60;;;;;;;;;;106444;1283;24288;-81
2023/05/24 04:06:12;;;;;;;10.90;3.80;;;;;;;;;;106807;1256;22568;-81
2023/05/24 04:09:00;;;;;;;13.10;5.60;;;;;;;;;;106850;1278;24190;-82
2023/05/24 04:11:31;;;;;;;13.00;5.80;;;;;;;;;;106874;1276;22530;-79
2023/05/24 04:14:02;;;;;;;12.50;5.70;;;;;;;;;;106713;1278;22575;-82
2023/05/24 04:17:47;;;;;;;;;;;;;;;;;;;;;
2023/05/24 04:20:45;;;;;;;11.20;5.20;;;;;;;;;;106801;1277;22530;-78
2023/05/24 04:23:20;;;;;;;13.20;4.50;;;;;;;;;;106889;1277;24371;-81
2023/05/24 04:26:24;;;;;;;12.90;5.30;;;;;;;;;;106873;1260;22524;-87
2023/05/24 04:28:54;;;;;;;12.30;5.60;;;;;;;;;;107222;1273;25353;-80
2023/05/24 04:31:45;;;;;;;12.80;5.90;;;;;;;;;;107233;1273;25315;-84
2023/05/24 04:34:11;;;;;;;12.80;5.90;;;;;;;;;;107166;1273;25406;-83
2023/05/24 04:36:51;;;;;;;11.90;5.10;;;;;;;;;;107156;1256;22543;-89
2023/05/24 04:39:53;;;;;;;10.50;5.50;;;;;;;;;;107247;1273;22524;-83
2023/05/24 04:42:47;;;;;;;12.00;5.50;;;;;;;;;;107059;1273;22524;-87
2023/05/24 04:45:24;;;;;;;13.20;5.10;;;;;;;;;;106708;1280;25243;-88
2023/05/24 04:47:54;;;;;;;13.30;5.00;;;;;;;;;;106415;1264;24228;-79
2023/05/24 04:50:24;;;;;;;11.20;5.40;;;;;;;;;;106379;1280;25278;-78
2023/05/24 04:52:56;;;;;;;14.10;5.60;;;;;;;;;;106451;1280;24202;-78
2023/05/24 05:10:24;;;;;;;14.70;5.70;;;;;;;;;;106837;1261;22532;-84
2023/05/24 05:18:04;;;;;;;;;;;;;;;;;;;;;
2023/05/24 05:21:09;;;;;;;14.60;6.10;;;;;;;;;;106033;1284;24255;-82
2023/05/24 05:23:38;;;;;;;21.50;6.80;;;;;;;;;;106346;1284;22623;-81
2023/05/24 05:26:06;;;;;;;20.90;5.70;;;;;;;;;;106365;1284;22542;-85
2023/05/24 05:28:36;;;;;;;16.40;4.50;;;;;;;;;;106345;1284;24259;-88
2023/05/24 05:31:43;;;;;;;14.10;4.60;;;;;;;;;;106298;1267;22582;-83
2023/05/24 05:41:22;;;;;;;18.50;5.30;;;;;;;;;;107376;1271;22517;-83
2023/05/24 05:44:31;;;;;;;18.70;6.10;;;;;;;;;;107440;1271;25312;-84
2023/05/24 05:46:58;;;;;;;17.40;5.30;;;;;;;;;;107481;1271;22487;-85
2023/05/24 05:49:42;;;;;;;17.70;6.50;;;;;;;;;;107485;1270;22640;-88
2023/05/24 05:52:12;;;;;;;18.00;7.50;;;;;;;;;;107255;1272;22515;-86
2023/05/24 05:54:39;;;;;;;18.80;6.80;;;;;;;;;;107416;1272;24178;-84
2023/05/24 05:57:29;;;;;;;17.40;5.70;;;;;;;;;;106900;1278;23993;-84
2023/05/24 05:59:56;;;;;;;14.30;4.90;;;;;;;;;;106794;1270;24048;-82
2023/05/24 06:02:28;;;;;;;14.20;6.30;;;;;;;;;;106866;1277;22637;-86
2023/05/24 06:05:05;;;;;;;17.60;6.70;;;;;;;;;;106922;1277;25271;-84
2023/05/24 06:07:59;;;;;;;16.60;6.60;;;;;;;;;;106847;1277;22746;-85
2023/05/24 06:10:26;;;;;;;18.40;6.50;;;;;;;;;;106876;1277;22639;-80
2023/05/24 06:13:29;;;;;;;;;;;;;;;;;;;;;
2023/05/24 06:16:26;;;;;;;18.70;6.00;;;;;;;;;;106368;1284;22661;-84
2023/05/24 06:19:20;;;;;;;19.80;7.00;;;;;;;;;;105781;1294;22596;-82
2023/05/24 06:21:50;;;;;;;19.90;7.10;;;;;;;;;;105808;1274;23360;-85
2023/05/24 06:24:21;;;;;;;16.20;7.60;;;;;;;;;;105817;1292;24551;-82
2023/05/24 06:26:51;;;;;;;20.40;7.00;;;;;;;;;;105797;1292;22558;-83
2023/05/24 06:29:24;;;;;;;24.80;6.90;;;;;;;;;;105801;1292;22594;-79
2023/05/24 06:32:14;;;;;;;20.90;6.50;;;;;;;;;;105612;1274;22547;-87
2023/05/24 06:34:45;;;;;;;16.30;7.00;;;;;;;;;;105792;1288;22530;-82
2023/05/24 06:37:15;;;;;;;22.60;8.30;;;;;;;;;;105904;1288;22546;-81
2023/05/24 06:39:42;;;;;;;17.70;7.60;;;;;;;;;;106196;1274;22509;-82
2023/05/24 06:45:46;;;;;;;19.00;6.40;;;;;;;;;;105962;1285;24674;-81
2023/05/24 06:48:30;;;;;;;18.80;7.40;;;;;;;;;;106319;1285;25361;-88
2023/05/24 06:50:59;;;;;;;24.10;8.70;;;;;;;;;;106394;1257;22520;-83
2023/05/24 06:53:29;;;;;;;20.00;7.80;;;;;;;;;;106814;1278;24231;-79
2023/05/24 06:55:59;;;;;;;17.50;7.00;;;;;;;;;;106940;1271;23913;-79
2023/05/24 06:58:48;;;;;;;15.90;6.00;;;;;;;;;;107155;1271;22517;-80
2023/05/24 07:01:15;;;;;;;20.70;7.20;;;;;;;;;;107363;1254;25274;-78
2023/05/24 07:03:45;;;;;;;21.60;8.30;;;;;;;;;;107346;1272;22520;-87
2023/05/24 07:06:53;;;;;;;21.70;8.80;;;;;;;;;;107248;1272;22473;-88
2023/05/24 07:09:26;;;;;;;19.40;8.10;;;;;;;;;;107437;1272;22641;-81
2023/05/24 07:12:31;;;;;;;20.40;6.80;;;;;;;;;;106782;1259;22597;-82
2023/05/24 07:15:24;;;;;;;19.20;8.00;;;;;;;;;;106760;1278;22527;-86
2023/05/24 07:17:51;;;;;;;20.10;7.80;;;;;;;;;;106776;1267;22532;-78
2023/05/24 07:20:28;;;;;;;20.80;9.30;;;;;;;;;;106791;1278;22530;-83
2023/05/24 07:23:05;;;;;;;;;;;;;;;;;;;;;
2023/05/24 07:25:32;;;;;;;16.70;6.80;;;;;;;;;;110231;1279;22156;-77
2023/05/24 07:28:00;;;;;;;17.90;6.60;;;;;;;;;;110289;1279;22183;-76
2023/05/24 07:30:27;;;;;;;17.00;7.50;;;;;;;;;;110178;1279;22136;-80
2023/05/24 07:32:54;;;;;;;21.00;7.90;;;;;;;;;;110285;1270;22961;-76
2023/05/24 07:35:23;;;;;;;21.10;7.40;;;;;;;;;;110192;1278;22844;-78
2023/05/24 07:37:50;;;;;;;15.50;5.80;;;;;;;;;;110321;1255;22233;-76
2023/05/24 07:40:17;;;;;;;15.80;6.00;;;;;;;;;;110337;1278;22252;-80
2023/05/24 07:42:46;;;;;;;15.30;6.30;;;;;;;;;;110088;1262;22845;-77
2023/05/24 07:45:12;;;;;;;19.60;6.90;;;;;;;;;;110166;1279;22129;-76
2023/05/24 07:47:39;;;;;;;14.30;6.80;;;;;;;;;;110281;1279;23049;-78
2023/05/24 07:50:12;;;;;;;15.50;5.80;;;;;;;;;;110566;1272;22282;-81
2023/05/24 07:52:39;;;;;;;13.50;4.40;;;;;;;;;;111206;1252;22139;-80
2023/05/24 07:55:06;;;;;;;16.50;4.70;;;;;;;;;;111038;1271;22782;-76
2023/05/24 07:57:33;;;;;;;14.60;5.30;;;;;;;;;;111028;1271;22557;-79
2023/05/24 08:00:08;;;;;;;13.60;4.90;;;;;;;;;;111042;1271;22155;-79
2023/05/24 08:02:38;;;;;;;19.90;5.70;;;;;;;;;;110865;1250;22105;-76
2023/05/24 08:05:05;;;;;;;15.20;5.00;;;;;;;;;;110680;1272;22108;-79
2023/05/24 08:07:33;;;;;;;19.50;5.40;;;;;;;;;;110986;1272;22251;-78
2023/05/24 08:10:00;;;;;;;16.20;5.10;;;;;;;;;;110685;1272;22833;-82
2023/05/24 08:12:29;;;;;;;12.40;4.50;;;;;;;;;;111034;1247;22171;-77
2023/05/24 08:14:55;;;;;;;11.90;5.00;;;;;;;;;;111051;1271;22418;-78
2023/05/24 08:17:22;;;;;;;17.30;6.60;;;;;;;;;;110729;1271;22194;-79
2023/05/24 08:19:49;;;;;;;17.30;6.30;;;;;;;;;;111032;1271;22291;-82
2023/05/24 08:22:16;;;;;;;15.40;5.00;;;;;;;;;;111032;1267;22117;-81
2023/05/24 08:24:43;;;;;;;17.50;5.60;;;;;;;;;;111548;1250;23695;-83
2023/05/24 08:27:11;;;;;;;17.10;5.90;;;;;;;;;;110691;1272;22111;-83
2023/05/24 08:29:37;;;;;;;18.60;5.30;;;;;;;;;;110999;1272;22406;-84
2023/05/24 08:32:08;;;;;;;12.30;4.40;;;;;;;;;;110702;1272;22089;-81
2023/05/24 08:34:36;;;;;;;13.90;4.20;;;;;;;;;;111313;1253;22187;-82
2023/05/24 08:37:03;;;;;;;15.90;4.60;;;;;;;;;;110744;1271;22123;-82
2023/05/24 08:43:37;;;;;;;15.40;4.40;;;;;;;;;;110352;1256;22202;-81
2023/05/24 08:46:14;;;;;;;15.90;4.30;;;;;;;;;;110244;1278;22165;-82
2023/05/24 08:49:02;;;;;;;17.70;5.00;;;;;;;;;;110215;1278;22347;-82
2023/05/24 08:51:32;;;;;;;17.70;5.10;;;;;;;;;;110159;1278;22180;-82
2023/05/24 08:53:59;;;;;;;14.10;5.40;;;;;;;;;;110299;1260;22936;-82
2023/05/24 08:56:27;;;;;;;21.50;8.70;;;;;;;;;;110094;1278;22130;-80
2023/05/24 08:58:55;;;;;;;33.20;18.80;;;;;;;;;;110213;1278;23005;-82
2023/05/24 09:01:23;;;;;;;17.00;6.70;;;;;;;;;;110214;1278;22179;-84
2023/05/24 09:03:52;;;;;;;11.60;4.80;;;;;;;;;;110422;1259;22353;-80
2023/05/24 09:06:24;;;;;;;13.10;5.00;;;;;;;;;;110079;1278;22947;-82
2023/05/24 09:09:36;;;;;;;13.60;4.10;;;;;;;;;;109860;1285;22003;-79
2023/05/24 09:12:07;;;;;;;17.20;4.50;;;;;;;;;;109965;1279;22159;-80
2023/05/24 09:14:34;;;;;;;13.80;4.50;;;;;;;;;;110187;1257;22287;-81
2023/05/24 09:17:01;;;;;;;15.00;5.00;;;;;;;;;;110167;1280;22135;-80
2023/05/24 09:19:28;;;;;;;11.10;3.90;;;;;;;;;;110076;1280;22110;-80
2023/05/24 09:21:56;;;;;;;14.20;4.10;;;;;;;;;;110099;1280;22198;-82
2023/05/24 09:24:23;;;;;;;13.60;4.50;;;;;;;;;;110309;1259;22215;-80
2023/05/24 09:26:52;;;;;;;13.70;4.80;;;;;;;;;;110098;1280;22153;-91
2023/05/24 09:29:23;;;;;;;14.40;4.50;;;;;;;;;;110048;1280;22220;-86
2023/05/24 09:31:54;;;;;;;9.80;3.80;;;;;;;;;;110147;1279;22146;-82
2023/05/24 09:34:21;;;;;;;21.50;4.40;;;;;;;;;;110060;1262;22151;-79
2023/05/24 09:36:47;;;;;;;16.50;3.80;;;;;;;;;;110117;1280;22200;-80
2023/05/24 09:39:17;;;;;;;12.50;4.10;;;;;;;;;;110227;1273;22103;-82
2023/05/24 09:41:54;;;;;;;14.90;4.40;;;;;;;;;;110752;1273;22373;-79
2023/05/24 09:44:26;;;;;;;15.60;4.30;;;;;;;;;;110685;1250;22151;-81
2023/05/24 09:47:00;;;;;;;9.40;3.60;;;;;;;;;;110664;1273;22137;-81
2023/05/24 09:49:27;;;;;;;16.40;4.30;;;;;;;;;;110654;1273;22114;-77
2023/05/24 09:51:55;;;;;;;12.70;4.10;;;;;;;;;;110820;1273;22133;-82
2023/05/24 09:54:25;;;;;;;13.50;4.00;;;;;;;;;;110776;1251;22219;-83
2023/05/24 09:56:53;;;;;;;10.80;3.90;;;;;;;;;;110642;1274;23032;-84
2023/05/24 09:59:24;;;;;;;14.80;3.40;;;;;;;;;;110653;1274;22079;-91
2023/05/24 10:02:20;;;;;;;10.90;3.50;;;;;;;;;;110586;1274;22114;-90
2023/05/24 10:05:50;;;;;;;12.70;3.50;;;;;;;;;;110382;1253;21914;-86
2023/05/24 10:11:46;;;;;;;13.50;3.70;;;;;;;;;;110457;1277;22132;-83
2023/05/24 10:14:14;;;;;;;13.70;3.90;;;;;;;;;;110458;1277;22154;-82
2023/05/24 10:16:43;;;;;;;10.40;3.80;;;;;;;;;;110460;1257;22173;-85
2023/05/24 10:19:13;;;;;;;13.30;3.90;;;;;;;;;;110388;1278;22651;-83
2023/05/24 10:21:41;;;;;;;13.20;3.50;;;;;;;;;;110239;1278;22152;-84
2023/05/24 10:24:12;;;;;;;12.90;3.60;;;;;;;;;;110427;1278;22153;-86
2023/05/24 10:26:59;;;;;;;14.10;4.00;;;;;;;;;;110491;1256;22324;-85
2023/05/24 10:29:40;;;;;;;10.20;3.60;;;;;;;;;;110209;1277;22148;-87
2023/05/24 10:32:17;;;;;;;14.50;4.00;;;;;;;;;;110478;1271;22824;-89
2023/05/24 10:34:47;;;;;;;11.70;3.60;;;;;;;;;;110490;1277;22124;-90
2023/05/24 10:41:11;;;;;;;10.90;3.20;;;;;;;;;;110023;1283;22276;-89
2023/05/24 10:43:44;;;;;;;10.70;4.00;;;;;;;;;;110042;1283;22173;-87
2023/05/24 10:53:53;;;;;;;10.80;4.10;;;;;;;;;;109872;1287;22154;-84
2023/05/24 10:57:23;;;;;;;;;;;;;;;;;;;;;
2023/05/24 11:01:58;;;;;;;11.70;4.40;;;;;;;;;;104840;1289;545156;-83
2023/05/24 11:05:10;;;;;;;10.70;4.20;;;;;;;;;;106998;1281;22550;-86
2023/05/24 11:08:58;;;;;;;10.90;3.60;;;;;;;;;;106818;1286;23897;-84
2023/05/24 11:11:37;;;;;;;11.10;3.90;;;;;;;;;;107017;1288;25298;-82
2023/05/24 11:25:07;;;;;;;8.70;3.30;;;;;;;;;;104965;1280;545748;-85
2023/05/24 11:27:34;;;;;;;10.10;3.70;;;;;;;;;;106418;1287;24386;-86
2023/05/24 11:30:08;;;;;;;13.90;4.10;;;;;;;;;;106474;1282;22661;-87
2023/05/24 11:32:39;;;;;;;11.70;4.50;;;;;;;;;;106475;1272;25486;-83
2023/05/24 11:35:13;;;;;;;13.40;4.30;;;;;;;;;;106150;1272;25396;-83
2023/05/24 11:37:44;;;;;;;13.80;4.40;;;;;;;;;;102514;1285;5431142;-85
2023/05/24 11:40:37;;;;;;;11.00;4.10;;;;;;;;;;106500;1275;22547;-88
2023/05/24 11:43:07;;;;;;;12.90;4.30;;;;;;;;;;106520;1282;23937;-84
2023/05/24 11:45:54;;;;;;;;;;;;;;;;;;;;;
2023/05/24 11:49:11;;;;;;;12.50;4.80;;;;;;;;;;106228;1290;22616;-82
2023/05/24 11:51:39;;;;;;;12.70;4.20;;;;;;;;;;106176;1290;22539;-84
2023/05/24 11:54:10;;;;;;;12.40;4.10;;;;;;;;;;106089;1269;22539;-83
2023/05/24 11:56:44;;;;;;;13.50;4.30;;;;;;;;;;105962;1291;22671;-87
2023/05/24 11:59:15;;;;;;;12.10;3.80;;;;;;;;;;106103;1287;25345;-83
2023/05/24 12:01:43;;;;;;;11.30;4.10;;;;;;;;;;106163;1291;22755;-89
2023/05/24 12:04:13;;;;;;;12.70;4.50;;;;;;;;;;105956;1267;24384;-85
2023/05/24 12:06:43;;;;;;;10.50;4.10;;;;;;;;;;106191;1290;21745;-82
2023/05/24 12:09:13;;;;;;;12.00;4.20;;;;;;;;;;106148;1290;22550;-83
2023/05/24 12:11:45;;;;;;;10.80;4.30;;;;;;;;;;106108;1290;24112;-83
2023/05/24 12:14:15;;;;;;;12.60;4.20;;;;;;;;;;106069;1269;22559;-85
2023/05/24 12:16:42;;;;;;;15.50;4.70;;;;;;;;;;106015;1291;22549;-85
2023/05/24 12:19:12;;;;;;;11.80;4.50;;;;;;;;;;106633;1279;22552;-77
2023/05/24 12:21:42;;;;;;;13.60;4.40;;;;;;;;;;106159;1286;24248;-81
2023/05/24 12:24:09;;;;;;;14.80;5.10;;;;;;;;;;106298;1285;22540;-81
2023/05/24 12:26:36;;;;;;;13.70;5.00;;;;;;;;;;106373;1269;22548;-81
2023/05/24 12:29:02;;;;;;;9.70;4.60;;;;;;;;;;106137;1267;22613;-89
2023/05/24 12:31:28;;;;;;;11.00;4.80;;;;;;;;;;106454;1285;25446;-84
2023/05/24 12:33:54;;;;;;;11.80;4.50;;;;;;;;;;106132;1285;22532;-79
2023/05/24 12:36:21;;;;;;;12.30;4.60;;;;;;;;;;106395;1285;25479;-86
2023/05/24 12:38:47;;;;;;;11.00;4.30;;;;;;;;;;106048;1287;24458;-81
2023/05/24 12:41:13;;;;;;;12.30;4.70;;;;;;;;;;106056;1287;22588;-80
2023/05/24 12:43:42;;;;;;;10.70;4.20;;;;;;;;;;106364;1287;24235;-76
2023/05/24 12:46:08;;;;;;;11.80;4.30;;;;;;;;;;106402;1269;22539;-79
2023/05/24 12:48:36;;;;;;;10.30;4.10;;;;;;;;;;106117;1285;22553;-79
2023/05/24 12:51:03;;;;;;;13.30;4.80;;;;;;;;;;106386;1287;23887;-80
2023/05/24 12:53:29;;;;;;;10.80;4.30;;;;;;;;;;106094;1287;25481;-83
2023/05/24 12:55:55;;;;;;;9.30;4.50;;;;;;;;;;106136;1272;25326;-81
2023/05/24 12:58:22;;;;;;;13.30;4.40;;;;;;;;;;106745;1279;22618;-77
2023/05/24 13:00:50;;;;;;;12.30;4.40;;;;;;;;;;106829;1279;22590;-81
2023/05/24 13:03:19;;;;;;;12.30;4.50;;;;;;;;;;106794;1279;22642;-81
2023/05/24 13:05:47;;;;;;;14.10;5.10;;;;;;;;;;106746;1262;22535;-80
2023/05/24 13:08:15;;;;;;;11.50;4.60;;;;;;;;;;106772;1279;22602;-87
2023/05/24 13:10:41;;;;;;;9.60;4.10;;;;;;;;;;106567;1272;26475;-83
2023/05/24 13:13:07;;;;;;;12.80;4.90;;;;;;;;;;106839;1279;24053;-80
2023/05/24 13:15:33;;;;;;;15.30;5.80;;;;;;;;;;106719;1255;22527;-83
2023/05/24 13:17:59;;;;;;;13.30;5.70;;;;;;;;;;106720;1279;25343;-78
2023/05/24 13:20:26;;;;;;;13.40;5.10;;;;;;;;;;106837;1279;25179;-83
2023/05/24 13:22:52;;;;;;;12.30;5.70;;;;;;;;;;106801;1271;22522;-76
2023/05/24 13:25:21;;;;;;;12.20;5.30;;;;;;;;;;106384;1278;23718;-75
2023/05/24 13:27:47;;;;;;;12.60;5.60;;;;;;;;;;106409;1273;24227;-79
2023/05/24 13:30:13;;;;;;;11.90;5.70;;;;;;;;;;106787;1278;25265;-77
2023/05/24 13:32:39;;;;;;;13.50;5.50;;;;;;;;;;106814;1278;24368;-80
2023/05/24 13:35:06;;;;;;;13.10;5.30;;;;;;;;;;106788;1278;22527;-84
2023/05/24 13:37:32;;;;;;;14.20;5.30;;;;;;;;;;106799;1263;23921;-83
2023/05/24 13:40:00;;;;;;;12.70;5.20;;;;;;;;;;106934;1277;25382;-81
2023/05/24 13:42:26;;;;;;;10.00;4.70;;;;;;;;;;106825;1277;23881;-82
2023/05/24 13:44:55;;;;;;;11.40;4.60;;;;;;;;;;106523;1277;24189;-79
2023/05/24 13:47:21;;;;;;;13.40;5.50;;;;;;;;;;106792;1277;24253;-82
2023/05/24 13:49:47;;;;;;;12.30;4.60;;;;;;;;;;106842;1278;24828;-78
2023/05/24 13:52:13;;;;;;;11.90;4.80;;;;;;;;;;106757;1278;22582;-83
2023/05/24 13:54:39;;;;;;;10.60;4.40;;;;;;;;;;106635;1278;22530;-81
2023/05/24 13:57:05;;;;;;;9.60;4.50;;;;;;;;;;106889;1259;22575;-80
2023/05/24 13:59:32;;;;;;;14.00;4.60;;;;;;;;;;106856;1277;22537;-85
2023/05/24 14:01:58;;;;;;;22.50;6.20;;;;;;;;;;106671;1254;24208;-77
2023/05/24 14:04:24;;;;;;;14.70;5.80;;;;;;;;;;106873;1277;24360;-80
2023/05/24 14:06:51;;;;;;;11.80;5.40;;;;;;;;;;106818;1263;24377;-77
2023/05/24 14:09:19;;;;;;;11.50;5.20;;;;;;;;;;106744;1277;22986;-77
2023/05/24 14:11:46;;;;;;;11.40;4.40;;;;;;;;;;106462;1277;23054;-78
2023/05/24 14:14:12;;;;;;;12.00;5.00;;;;;;;;;;106867;1277;22606;-81
2023/05/24 14:16:39;;;;;;;11.30;4.80;;;;;;;;;;106786;1260;25357;-82
2023/05/24 14:19:05;;;;;;;22.50;6.60;;;;;;;;;;106482;1278;23894;-79
2023/05/24 14:21:31;;;;;;;9.20;4.10;;;;;;;;;;106822;1278;22539;-82
2023/05/24 14:23:57;;;;;;;13.00;5.30;;;;;;;;;;106633;1278;22539;-80
2023/05/24 14:26:23;;;;;;;12.80;4.60;;;;;;;;;;106790;1278;24319;-81
2023/05/24 14:28:49;;;;;;;11.80;4.70;;;;;;;;;;106805;1259;23898;-80
2023/05/24 14:31:16;;;;;;;11.40;5.10;;;;;;;;;;106707;1277;22526;-78
2023/05/24 14:33:42;;;;;;;12.90;4.80;;;;;;;;;;106770;1277;25321;-80
2023/05/24 14:36:08;;;;;;;11.40;4.70;;;;;;;;;;106898;1277;22557;-81
2023/05/24 14:38:34;;;;;;;13.10;4.50;;;;;;;;;;106860;1277;22607;-80
2023/05/24 14:41:00;;;;;;;12.00;4.10;;;;;;;;;;106909;1277;22667;-84
2023/05/24 14:43:27;;;;;;;12.10;4.10;;;;;;;;;;106880;1277;23130;-82
2023/05/24 14:45:53;;;;;;;10.90;3.90;;;;;;;;;;106836;1277;24203;-79
2023/05/24 14:48:19;;;;;;;11.80;3.60;;;;;;;;;;106781;1262;24199;-81
2023/05/24 14:50:45;;;;;;;8.60;3.00;;;;;;;;;;106798;1277;24334;-78
2023/05/24 14:53:19;;;;;;;12.50;3.20;;;;;;;;;;106867;1277;22538;-87
2023/05/24 14:59:16;;;;;;;7.90;3.30;;;;;;;;;;107298;1254;22497;-77
2023/05/24 15:01:50;;;;;;;11.60;4.00;;;;;;;;;;106854;1254;22535;-84
2023/05/24 15:05:25;;;;;;;11.70;4.40;;;;;;;;;;106612;1280;23937;-82
2023/05/24 15:07:51;;;;;;;12.80;3.80;;;;;;;;;;107194;1260;22531;-83
2023/05/24 15:10:17;;;;;;;9.90;3.70;;;;;;;;;;106799;1278;24371;-86
2023/05/24 15:12:43;;;;;;;10.30;3.90;;;;;;;;;;106882;1278;24198;-80
2023/05/24 15:15:09;;;;;;;12.40;3.80;;;;;;;;;;106907;1278;22561;-84
2023/05/24 15:17:36;;;;;;;10.50;3.90;;;;;;;;;;106876;1277;22533;-79
2023/05/24 15:20:04;;;;;;;9.50;3.90;;;;;;;;;;106750;1262;25355;-82
2023/05/24 15:22:32;;;;;;;9.50;3.80;;;;;;;;;;106982;1278;22511;-80
2023/05/24 15:24:59;;;;;;;10.60;4.20;;;;;;;;;;106933;1278;22602;-83
2023/05/24 15:27:25;;;;;;;11.30;4.10;;;;;;;;;;106889;1277;23918;-75
2023/05/24 15:29:53;;;;;;;11.10;4.10;;;;;;;;;;106899;1276;25337;-83
2023/05/24 15:32:19;;;;;;;13.40;4.40;;;;;;;;;;106843;1276;22541;-80
2023/05/24 15:34:46;;;;;;;10.90;4.20;;;;;;;;;;106940;1276;24237;-80
2023/05/24 15:40:10;;;;;;;13.80;5.10;;;;;;;;;;107148;1255;22540;-82
2023/05/24 15:42:39;;;;;;;9.10;4.50;;;;;;;;;;107167;1274;22993;-79
2023/05/24 15:45:06;;;;;;;9.90;4.10;;;;;;;;;;106992;1274;25376;-80
2023/05/24 15:47:38;;;;;;;12.00;5.10;;;;;;;;;;106967;1274;25281;-82
2023/05/24 15:50:05;;;;;;;11.40;4.10;;;;;;;;;;107340;1260;24366;-85
2023/05/24 15:52:32;;;;;;;10.20;3.90;;;;;;;;;;107212;1274;25350;-78
2023/05/24 15:54:58;;;;;;;10.80;3.70;;;;;;;;;;107101;1275;22523;-83
2023/05/24 16:03:26;;;;;;;10.10;3.20;;;;;;;;;;103880;1295;545762;-85
2023/05/24 16:05:53;;;;;;;9.50;4.20;;;;;;;;;;106013;1286;24440;-81
2023/05/24 16:08:26;;;;;;;9.30;4.20;;;;;;;;;;106238;1286;25332;-77
2023/05/24 16:10:54;;;;;;;10.60;4.10;;;;;;;;;;106022;1286;22521;-80
2023/05/24 16:13:21;;;;;;;11.10;3.50;;;;;;;;;;106370;1286;25329;-79
2023/05/24 16:15:50;;;;;;;19.10;4.40;;;;;;;;;;106081;1284;22557;-82
2023/05/24 16:18:20;;;;;;;9.30;3.60;;;;;;;;;;104185;1282;3061624;-83
2023/05/24 16:20:48;;;;;;;10.50;3.80;;;;;;;;;;106683;1282;25347;-80
2023/05/24 16:23:15;;;;;;;8.90;3.80;;;;;;;;;;106491;1273;22557;-85
2023/05/24 16:25:45;;;;;;;8.30;3.40;;;;;;;;;;106768;1281;22554;-80
2023/05/24 16:28:12;;;;;;;11.60;3.40;;;;;;;;;;106498;1282;25356;-81
2023/05/24 16:30:39;;;;;;;11.80;3.70;;;;;;;;;;106422;1282;22530;-79
2023/05/24 16:33:06;;;;;;;9.70;3.50;;;;;;;;;;106437;1267;22659;-79